Time;durP1;ratioP1;P1;durP2;ratioP2;P2;SDS_P1;SDS_P2;PMS_P1;PMS_P2;Temp;Humidity;BMP_temperature;BMP_pressure;BME280_temperature;BME280_humidity;BME280_pressure;Samples;Min_cycle;Max_cycle;Signal;HPM_P1;HPM_P2
2024/03/10 00:01:56;;;;;;;28.85;15.52;;;;;;;8.64;74.60;100044.25;5051340;28;20031;-26
2024/03/10 00:04:21;;;;;;;29.70;16.13;;;;;;;8.51;75.27;100037.78;5051189;28;20120;-26
2024/03/10 00:06:47;;;;;;;29.88;15.98;;;;;;;8.56;76.07;100042.53;5051055;28;20117;-24
2024/03/10 00:09:13;;;;;;;24.63;15.13;;;;;;;8.82;75.27;100044.72;5051281;28;20426;-26
2024/03/10 00:11:38;;;;;;;29.92;16.80;;;;;;;8.93;74.10;100035.44;5051340;28;20035;-26
2024/03/10 00:14:05;;;;;;;27.95;15.75;;;;;;;8.55;75.51;100036.41;5051300;28;20029;-26
2024/03/10 00:16:31;;;;;;;31.33;16.20;;;;;;;8.78;74.42;100022.22;5051215;28;20025;-26
2024/03/10 00:18:59;;;;;;;29.58;16.35;;;;;;;8.77;74.56;100024.03;5050701;28;20036;-26
2024/03/10 00:21:25;;;;;;;29.65;16.75;;;;;;;8.84;74.27;100021.47;5051132;28;20085;-26
2024/03/10 00:23:50;;;;;;;27.63;16.08;;;;;;;8.74;73.93;100018.28;5050943;28;20062;-26
2024/03/10 00:26:16;;;;;;;28.90;15.98;;;;;;;8.61;74.49;100032.19;5050890;28;20056;-27
2024/03/10 00:28:41;;;;;;;26.88;14.98;;;;;;;8.52;75.26;100028.81;5050711;28;20516;-26
2024/03/10 00:31:09;;;;;;;27.73;16.40;;;;;;;8.80;74.21;100028.97;5038175;28;20140;-26
2024/03/10 00:33:35;;;;;;;29.38;16.33;;;;;;;8.72;74.48;100026.44;5030759;28;20037;-26
2024/03/10 00:36:00;;;;;;;29.30;16.38;;;;;;;8.46;75.57;100021.59;5030691;28;20033;-27
2024/03/10 00:38:29;;;;;;;28.55;15.95;;;;;;;8.63;75.55;100022.22;5030665;28;20033;-26
2024/03/10 00:40:55;;;;;;;26.20;15.45;;;;;;;8.45;76.16;100027.88;5030990;28;20051;-26
2024/03/10 00:43:20;;;;;;;29.23;16.38;;;;;;;8.52;75.36;100020.84;5030925;28;20585;-26
2024/03/10 00:45:45;;;;;;;30.20;16.02;;;;;;;8.55;75.88;100020.50;5030830;28;20030;-26
2024/03/10 00:48:11;;;;;;;27.75;16.23;;;;;;;8.59;75.95;100018.28;5030884;28;20627;-26
2024/03/10 00:50:37;;;;;;;28.30;15.82;;;;;;;8.60;75.72;100018.13;5030854;28;20025;-25
2024/03/10 00:53:02;;;;;;;29.30;16.00;;;;;;;8.29;76.30;100020.09;5030534;28;20485;-26
2024/03/10 00:55:28;;;;;;;30.58;15.82;;;;;;;7.96;77.35;100013.28;5030973;28;20110;-26
2024/03/10 00:57:53;;;;;;;28.05;15.73;;;;;;;8.04;77.77;100022.97;5030649;28;20164;-27
2024/03/10 01:00:18;;;;;;;31.25;16.13;;;;;;;8.14;77.58;100020.88;5030340;28;20021;-26
2024/03/10 01:02:47;;;;;;;28.35;15.43;;;;;;;8.48;76.42;100014.25;5030556;28;20066;-26
2024/03/10 01:05:13;;;;;;;29.65;15.68;;;;;;;8.58;76.13;100006.84;5030479;28;20091;-26
2024/03/10 01:07:39;;;;;;;30.27;15.77;;;;;;;8.43;76.84;100015.81;5030410;28;20037;-26
2024/03/10 01:10:05;;;;;;;28.02;16.58;;;;;;;8.75;75.86;100012.78;5030585;28;20036;-27
2024/03/10 01:12:30;;;;;;;29.05;15.73;;;;;;;8.67;76.37;100007.56;5030283;28;20029;-26
2024/03/10 01:14:55;;;;;;;29.73;15.93;;;;;;;8.71;76.02;100002.72;5030243;28;20017;-26
2024/03/10 01:17:22;;;;;;;28.30;15.10;;;;;;;8.66;76.29;99997.13;5030376;28;20428;-26
2024/03/10 01:19:47;;;;;;;28.08;15.45;;;;;;;8.43;77.09;100000.72;5030251;28;20474;-26
2024/03/10 01:22:17;;;;;;;32.30;17.02;;;;;;;8.09;78.58;100002.06;5030302;28;20064;-27
2024/03/10 01:24:43;;;;;;;30.52;15.52;;;;;;;8.10;78.78;99989.63;5030265;28;20120;-26
2024/03/10 01:27:08;;;;;;;29.08;16.30;;;;;;;7.96;79.81;100001.84;5030285;28;20133;-26
2024/03/10 01:29:35;;;;;;;30.65;16.42;;;;;;;8.09;79.26;100003.88;5031487;28;20141;-25
2024/03/10 01:32:00;;;;;;;30.40;16.83;;;;;;;8.23;78.62;100000.41;5035148;28;20068;-26
2024/03/10 01:34:26;;;;;;;33.25;16.90;;;;;;;8.28;78.52;100007.81;5034978;28;20111;-26
2024/03/10 01:36:52;;;;;;;31.75;17.23;;;;;;;8.19;78.01;100004.44;5034324;28;20036;-26
2024/03/10 01:39:17;;;;;;;29.67;16.85;;;;;;;8.10;78.25;100002.88;5034685;28;20064;-26
2024/03/10 01:41:43;;;;;;;29.63;15.93;;;;;;;7.98;77.90;100005.16;5034525;28;20033;-26
2024/03/10 01:44:08;;;;;;;29.15;16.45;;;;;;;8.05;78.30;100008.69;5034399;28;20099;-26
2024/03/10 01:46:36;;;;;;;31.58;17.15;;;;;;;8.22;76.92;100009.38;5034696;28;20065;-26
2024/03/10 01:49:03;;;;;;;28.23;16.30;;;;;;;8.13;77.08;100011.28;5034347;28;20029;-26
2024/03/10 01:51:29;;;;;;;29.63;16.35;;;;;;;7.77;77.86;100005.84;5034173;28;20034;-26
2024/03/10 01:53:57;;;;;;;29.33;16.45;;;;;;;7.86;77.83;99999.44;5033930;28;20037;-26
2024/03/10 01:56:23;;;;;;;37.13;16.67;;;;;;;7.86;77.54;99988.84;5034295;28;20448;-26
2024/03/10 01:58:51;;;;;;;29.85;17.13;;;;;;;8.18;76.18;100008.09;5034270;28;20474;-26
2024/03/10 02:01:16;;;;;;;35.08;17.98;;;;;;;8.31;75.48;100007.47;5034379;28;20033;-26
2024/03/10 02:03:45;;;;;;;27.30;16.58;;;;;;;8.29;75.57;100012.94;5034602;28;20036;-26
2024/03/10 02:06:10;;;;;;;32.03;16.98;;;;;;;8.54;74.53;100007.41;5034001;28;20065;-26
2024/03/10 02:08:37;;;;;;;30.48;16.70;;;;;;;8.35;75.02;100011.41;5034046;28;20060;-27
2024/03/10 02:11:07;;;;;;;28.77;16.33;;;;;;;7.90;77.17;100003.41;5034240;28;20052;-27
2024/03/10 02:13:33;;;;;;;29.98;16.98;;;;;;;7.85;77.04;99994.34;5033876;28;20143;-26
2024/03/10 02:16:03;;;;;;;31.35;16.75;;;;;;;7.86;76.93;100009.22;5033805;28;20457;-26
2024/03/10 02:18:34;;;;;;;30.00;16.70;;;;;;;7.79;77.67;100009.94;5033925;28;20391;-26
2024/03/10 02:21:00;;;;;;;28.73;16.98;;;;;;;7.86;77.03;100014.50;5033949;28;20044;-26
2024/03/10 02:24:22;;;;;;;31.20;17.35;;;;;;;8.02;77.15;100007.25;5033882;28;20126;-26
2024/03/10 02:26:47;;;;;;;29.92;16.60;;;;;;;7.86;77.51;100006.56;5032621;28;20132;-26
2024/03/10 02:48:09;;;;;;;31.65;16.67;;;;;;;7.64;77.82;99993.19;5053433;28;20075;-26
2024/03/10 02:50:35;;;;;;;32.53;15.98;;;;;;;7.68;77.31;99991.00;5053010;28;20059;-26
2024/03/10 02:53:00;;;;;;;31.35;17.00;;;;;;;7.73;76.90;99994.75;5052993;28;20465;-26
2024/03/10 02:55:26;;;;;;;29.42;16.48;;;;;;;8.02;75.43;99979.94;5052694;28;20033;-26
2024/03/10 02:57:52;;;;;;;30.88;16.27;;;;;;;7.93;76.00;99983.66;5053487;28;20087;-27
2024/03/10 03:00:18;;;;;;;30.83;16.40;;;;;;;7.83;75.50;99971.47;5053195;28;20029;-27
2024/03/10 03:02:43;;;;;;;27.33;15.30;;;;;;;7.80;75.54;99973.66;5053008;28;20447;-27
2024/03/10 03:05:09;;;;;;;29.58;16.17;;;;;;;7.81;75.48;99983.28;5053023;28;20048;-26
2024/03/10 03:07:34;;;;;;;28.58;16.35;;;;;;;7.70;75.76;99967.81;5052983;28;20037;-26
2024/03/10 03:10:00;;;;;;;29.60;17.05;;;;;;;7.57;76.76;99977.16;5052857;28;20028;-26
2024/03/10 03:12:25;;;;;;;28.90;16.35;;;;;;;7.47;77.47;99971.28;5052787;28;20021;-26
2024/03/10 03:14:51;;;;;;;30.50;17.15;;;;;;;7.58;77.44;99972.72;5052970;28;20059;-26
2024/03/10 03:17:16;;;;;;;30.05;16.35;;;;;;;7.21;78.24;99972.47;5052792;28;20485;-26
2024/03/10 03:19:43;;;;;;;29.58;16.85;;;;;;;7.28;78.63;99977.88;5052632;28;20082;-26
2024/03/10 03:22:10;;;;;;;27.75;16.10;;;;;;;7.40;78.40;99973.81;5052586;28;20028;-27
2024/03/10 03:24:36;;;;;;;29.33;16.23;;;;;;;7.67;77.48;99974.25;5052632;28;20033;-26
2024/03/10 03:27:02;;;;;;;30.67;16.05;;;;;;;7.46;78.20;99969.63;5052368;28;20045;-26
2024/03/10 03:29:28;;;;;;;29.98;16.77;;;;;;;7.66;76.93;99963.88;5052170;28;20032;-27
2024/03/10 03:31:54;;;;;;;31.58;16.83;;;;;;;7.40;78.00;99973.00;5033550;28;20029;-26
2024/03/10 03:34:19;;;;;;;28.67;16.58;;;;;;;7.21;78.88;99971.66;5032572;28;20120;-26
2024/03/10 03:36:45;;;;;;;34.53;17.77;;;;;;;7.29;79.67;99966.31;5032499;28;20029;-26
2024/03/10 03:39:11;;;;;;;32.47;16.15;;;;;;;7.43;79.17;99975.31;5032491;28;20032;-26
2024/03/10 03:41:37;;;;;;;30.13;17.52;;;;;;;7.31;79.72;99974.06;5032507;28;20106;-26
2024/03/10 03:44:04;;;;;;;32.45;17.27;;;;;;;7.27;80.25;99968.28;5032507;28;20105;-26
2024/03/10 03:46:32;;;;;;;32.67;16.30;;;;;;;6.97;81.33;99959.41;5032520;28;20422;-26
2024/03/10 03:48:58;;;;;;;30.10;16.23;;;;;;;7.05;81.53;99957.53;5032181;28;20057;-26
2024/03/10 03:51:23;;;;;;;30.73;16.95;;;;;;;7.22;81.25;99963.53;5032384;28;20061;-26
2024/03/10 03:53:49;;;;;;;31.40;16.58;;;;;;;7.30;81.18;99965.28;5031345;28;20026;-27
2024/03/10 03:56:15;;;;;;;30.80;17.38;;;;;;;7.28;81.61;99964.66;5032196;28;20093;-26
2024/03/10 03:58:41;;;;;;;29.00;17.33;;;;;;;7.46;80.35;99974.13;5031956;28;20444;-27
2024/03/10 04:01:06;;;;;;;31.67;17.23;;;;;;;7.29;80.42;99962.81;5032054;28;20029;-26
2024/03/10 04:03:32;;;;;;;31.17;17.17;;;;;;;7.34;79.86;99957.81;5031826;28;20091;-26
2024/03/10 04:05:57;;;;;;;34.17;17.70;;;;;;;7.59;79.12;99966.41;5031846;28;20040;-26
2024/03/10 04:08:23;;;;;;;33.88;17.83;;;;;;;7.33;80.03;99970.25;5031783;28;20026;-26
2024/03/10 04:10:48;;;;;;;34.05;18.27;;;;;;;7.57;79.14;99971.88;5031725;28;20021;-26
2024/03/10 04:13:13;;;;;;;32.95;17.92;;;;;;;7.55;78.87;99973.06;5031844;28;20029;-26
2024/03/10 04:15:39;;;;;;;32.42;17.77;;;;;;;7.21;80.40;99955.75;5031952;28;20045;-26
2024/03/10 04:18:05;;;;;;;33.72;17.40;;;;;;;7.20;80.48;99967.38;5031687;28;20346;-26
2024/03/10 04:20:31;;;;;;;33.30;17.90;;;;;;;7.01;81.29;99963.34;5031675;28;20075;-27
2024/03/10 04:22:57;;;;;;;33.45;18.23;;;;;;;7.15;81.09;99970.53;5031833;28;20036;-26
2024/03/10 04:25:22;;;;;;;35.28;18.20;;;;;;;7.12;80.71;99964.75;5031497;28;20018;-27
2024/03/10 04:27:48;;;;;;;31.83;17.48;;;;;;;7.29;80.54;99974.25;5031027;28;20037;-27
2024/03/10 04:30:13;;;;;;;35.72;18.60;;;;;;;7.12;80.86;99976.19;5031039;28;20021;-27
2024/03/10 04:32:38;;;;;;;33.67;17.42;;;;;;;6.82;82.56;99972.56;5030658;28;20025;-25
2024/03/10 04:35:05;;;;;;;34.00;20.08;;;;;;;7.08;81.28;99974.03;5030745;28;20033;-26
2024/03/10 04:37:30;;;;;;;38.92;20.70;;;;;;;7.01;81.52;99980.03;5030633;28;20032;-26
2024/03/10 04:39:55;;;;;;;38.25;19.70;;;;;;;7.15;81.39;99957.28;5030554;28;20029;-26
2024/03/10 04:42:21;;;;;;;33.85;18.15;;;;;;;7.01;81.59;99964.16;5030892;28;20032;-26
2024/03/10 04:44:46;;;;;;;32.58;17.73;;;;;;;6.65;82.86;99962.03;5030581;28;20473;-26
2024/03/10 04:47:14;;;;;;;38.30;21.35;;;;;;;6.80;82.64;99961.31;5030564;28;20029;-26
2024/03/10 04:49:40;;;;;;;35.67;18.08;;;;;;;6.82;83.26;99957.50;5030227;28;20033;-26
2024/03/10 04:52:08;;;;;;;34.65;20.10;;;;;;;6.56;83.90;99954.31;5030653;28;20025;-26
2024/03/10 04:54:34;;;;;;;39.28;19.20;;;;;;;6.71;83.38;99957.06;5030931;28;20033;-25
2024/03/10 04:57:00;;;;;;;33.20;18.08;;;;;;;6.67;83.63;99958.41;5030297;28;20018;-26
2024/03/10 04:59:25;;;;;;;31.38;18.00;;;;;;;6.82;82.87;99967.25;5030380;28;20029;-26
2024/03/10 05:01:53;;;;;;;36.22;19.48;;;;;;;6.79;82.75;99962.31;5031146;28;20497;-26
2024/03/10 05:04:19;;;;;;;33.80;18.05;;;;;;;7.05;81.96;99975.22;5029473;28;20026;-26
2024/03/10 05:06:45;;;;;;;32.47;18.17;;;;;;;6.88;82.76;99971.84;5030599;28;20025;-26
2024/03/10 05:09:10;;;;;;;34.40;18.50;;;;;;;6.85;82.22;99978.31;5030602;28;20041;-26
2024/03/10 05:11:36;;;;;;;35.08;18.88;;;;;;;6.82;81.56;99980.50;5030464;28;20490;-26
2024/03/10 05:14:01;;;;;;;30.60;17.50;;;;;;;6.85;82.21;99980.97;5030431;28;20025;-28
2024/03/10 05:16:27;;;;;;;34.35;18.35;;;;;;;6.80;81.69;99985.94;5030497;28;20056;-27
2024/03/10 05:18:53;;;;;;;34.83;17.73;;;;;;;6.79;82.41;99988.75;5030227;28;20099;-27
2024/03/10 05:21:19;;;;;;;35.85;18.48;;;;;;;6.98;80.90;99993.59;5030901;28;20021;-27
2024/03/10 05:23:44;;;;;;;33.90;16.95;;;;;;;7.37;78.75;99994.56;5030437;28;20029;-27
2024/03/10 05:26:10;;;;;;;30.50;16.88;;;;;;;7.50;78.11;99993.94;5021976;28;231124;-27
2024/03/10 05:28:35;;;;;;;30.17;17.02;;;;;;;7.64;77.44;100001.13;5030615;28;20060;-27
2024/03/10 05:31:00;;;;;;;31.42;17.77;;;;;;;7.39;77.63;100003.13;5041221;28;20374;-27
2024/03/10 05:33:26;;;;;;;29.05;16.77;;;;;;;7.41;77.03;100007.25;5050979;28;20385;-26
2024/03/10 05:35:51;;;;;;;29.83;16.55;;;;;;;7.62;76.54;100014.53;5050838;28;20021;-27
2024/03/10 05:38:16;;;;;;;31.48;17.35;;;;;;;7.45;77.29;100013.03;5051001;28;20083;-27
2024/03/10 05:40:42;;;;;;;33.85;17.73;;;;;;;7.31;76.75;100006.66;5050733;28;20017;-26
2024/03/10 05:43:08;;;;;;;30.13;16.23;;;;;;;7.51;75.69;100022.91;5050767;28;20106;-26
2024/03/10 05:45:33;;;;;;;28.98;15.70;;;;;;;7.44;75.90;100030.75;5050931;28;20389;-26
2024/03/10 05:47:59;;;;;;;30.52;16.30;;;;;;;7.49;75.89;100005.56;5051124;28;20028;-27
2024/03/10 05:50:25;;;;;;;30.02;16.20;;;;;;;7.69;74.95;100019.97;5050752;28;20064;-26
2024/03/10 05:52:51;;;;;;;29.45;16.85;;;;;;;8.04;74.00;100022.97;5051538;28;20099;-28
2024/03/10 05:55:16;;;;;;;31.73;17.00;;;;;;;8.25;72.06;100005.53;5051586;28;20121;-27
2024/03/10 05:57:42;;;;;;;29.55;16.70;;;;;;;8.44;72.13;100022.78;5050937;28;20563;-28
2024/03/10 06:00:14;;;;;;;30.00;16.65;;;;;;;8.51;72.29;100000.66;5050205;28;20048;-27
2024/03/10 06:02:45;;;;;;;33.72;16.83;;;;;;;8.79;71.18;100013.22;5050520;28;20032;-27
2024/03/10 06:05:12;;;;;;;30.50;15.88;;;;;;;8.94;70.76;100019.34;5050703;28;20025;-27
2024/03/10 06:07:37;;;;;;;28.08;15.93;;;;;;;9.01;70.84;100038.00;5050705;28;20028;-27
2024/03/10 06:10:05;;;;;;;30.08;16.23;;;;;;;9.09;69.93;100032.59;5050521;28;20397;-26
2024/03/10 06:12:31;;;;;;;27.40;16.17;;;;;;;9.14;70.92;100038.16;5050680;28;20044;-26
2024/03/10 06:14:56;;;;;;;27.00;16.05;;;;;;;9.31;69.73;100040.56;5050714;28;20021;-26
2024/03/10 06:17:30;;;;;;;28.50;16.88;;;;;;;9.76;67.24;100035.91;5054435;28;20461;-27
2024/03/10 06:25:30;;;;;;;50.03;26.08;;;;;;;10.46;65.16;100046.72;5051209;28;20044;-27
2024/03/10 06:27:56;;;;;;;44.53;25.23;;;;;;;10.61;64.93;100041.28;5045857;28;20571;-27
2024/03/10 06:30:23;;;;;;;30.58;17.83;;;;;;;11.33;63.05;100059.41;5054113;28;20020;-27
2024/03/10 06:32:52;;;;;;;28.35;16.30;;;;;;;11.68;61.65;100056.59;5054493;28;20021;-27
2024/03/10 06:35:17;;;;;;;34.27;19.63;;;;;;;11.92;60.67;100062.41;5054174;28;20555;-27
2024/03/10 06:37:46;;;;;;;25.92;15.93;;;;;;;12.02;59.22;100059.34;5054226;28;20025;-26
2024/03/10 06:40:11;;;;;;;27.67;17.30;;;;;;;12.34;57.46;100055.00;5054177;28;20025;-27
2024/03/10 06:42:37;;;;;;;26.92;15.05;;;;;;;11.86;59.08;100057.84;5054275;28;20031;-28
2024/03/10 06:45:05;;;;;;;24.88;14.82;;;;;;;12.30;57.66;100054.59;5053992;28;20354;-27
2024/03/10 06:47:31;;;;;;;26.38;16.45;;;;;;;12.60;56.87;100061.31;5053823;28;20033;-28
2024/03/10 06:49:56;;;;;;;27.52;15.75;;;;;;;12.99;55.81;100056.91;5033203;28;20112;-27
2024/03/10 06:52:22;;;;;;;24.00;14.82;;;;;;;13.48;53.93;100063.47;5033882;28;20034;-28
2024/03/10 06:54:47;;;;;;;22.52;14.43;;;;;;;13.71;52.54;100060.25;5033774;28;20033;-27
2024/03/10 06:57:13;;;;;;;21.15;13.82;;;;;;;13.64;52.50;100059.47;5033615;28;20025;-28
2024/03/10 06:59:38;;;;;;;22.17;13.73;;;;;;;13.14;54.06;100067.31;5033726;28;20079;-27
2024/03/10 07:02:07;;;;;;;21.17;13.20;;;;;;;13.22;54.64;100069.75;5033431;28;20100;-27
2024/03/10 07:04:33;;;;;;;23.92;12.70;;;;;;;13.23;54.06;100072.22;5033819;28;20041;-27
2024/03/10 07:06:58;;;;;;;20.48;12.95;;;;;;;13.43;53.35;100074.00;5033752;28;20029;-27
2024/03/10 07:09:25;;;;;;;21.73;13.00;;;;;;;13.21;53.62;100082.28;5033898;28;20025;-28
2024/03/10 07:11:53;;;;;;;19.63;12.15;;;;;;;12.82;54.35;100080.59;5033953;28;20076;-28
2024/03/10 07:14:19;;;;;;;19.60;12.50;;;;;;;13.07;53.92;100080.69;5033201;28;20052;-27
2024/03/10 07:16:47;;;;;;;20.08;13.27;;;;;;;12.97;53.89;100075.00;5042393;28;20088;-27
2024/03/10 07:19:13;;;;;;;19.92;12.23;;;;;;;13.58;52.44;100074.50;5041211;28;20025;-28
2024/03/10 07:21:38;;;;;;;19.95;12.70;;;;;;;13.63;51.97;100074.69;5042885;28;20044;-27
2024/03/10 07:24:04;;;;;;;18.52;11.65;;;;;;;13.49;52.16;100068.59;5045696;28;20395;-28
2024/03/10 07:26:34;;;;;;;23.45;14.75;;;;;;;12.96;53.50;100071.47;5041689;28;20399;-27
2024/03/10 07:28:59;;;;;;;26.40;14.77;;;;;;;12.31;55.87;100068.75;5032430;28;20025;-27
2024/03/10 07:31:26;;;;;;;22.25;13.98;;;;;;;12.50;54.83;100064.41;5032629;28;20128;-28
2024/03/10 07:33:53;;;;;;;24.33;15.15;;;;;;;12.72;54.67;100065.00;5032491;28;20116;-27
2024/03/10 07:36:18;;;;;;;25.35;16.08;;;;;;;12.45;55.91;100064.22;5036047;28;20079;-27
2024/03/10 07:38:44;;;;;;;23.38;15.30;;;;;;;12.68;55.71;100069.13;5052736;28;20025;-28
2024/03/10 07:41:10;;;;;;;27.02;15.32;;;;;;;12.49;56.83;100068.13;5051857;28;20086;-27
2024/03/10 07:43:36;;;;;;;25.92;15.10;;;;;;;12.68;56.21;100077.13;5052489;28;20079;-27
2024/03/10 07:46:02;;;;;;;23.85;14.52;;;;;;;12.58;56.14;100064.19;5052454;28;20028;-27
2024/03/10 07:48:28;;;;;;;23.95;14.45;;;;;;;12.64;55.76;100067.88;5052778;28;20112;-28
2024/03/10 07:50:53;;;;;;;25.42;14.55;;;;;;;12.84;54.83;100071.31;5052102;28;20108;-27
2024/03/10 07:53:18;;;;;;;19.92;12.77;;;;;;;13.03;54.46;100058.91;5051938;28;20432;-27
2024/03/10 07:55:44;;;;;;;20.40;12.73;;;;;;;13.12;53.76;100056.84;5051794;28;20071;-27
2024/03/10 07:58:09;;;;;;;21.08;12.98;;;;;;;13.55;52.56;100056.22;5051510;28;20025;-27
2024/03/10 08:00:34;;;;;;;21.27;13.02;;;;;;;14.72;51.54;100050.31;5051704;28;20028;-29
2024/03/10 08:03:00;;;;;;;22.17;13.05;;;;;;;15.01;49.82;100050.59;5051766;28;20081;-28
2024/03/10 08:05:25;;;;;;;25.73;14.65;;;;;;;15.15;49.29;100044.00;5048648;28;20064;-28
2024/03/10 08:07:51;;;;;;;24.95;13.70;;;;;;;15.03;49.81;100038.59;5031762;28;20025;-27
2024/03/10 08:10:17;;;;;;;22.33;13.52;;;;;;;14.88;49.99;100032.81;5035412;28;20400;-27
2024/03/10 08:12:47;;;;;;;23.58;13.85;;;;;;;15.86;48.42;100055.03;5036062;28;20040;-29
2024/03/10 08:15:13;;;;;;;24.13;14.13;;;;;;;15.86;48.40;100052.34;5030985;28;20026;-27
2024/03/10 08:17:39;;;;;;;21.90;13.60;;;;;;;16.03;46.95;100044.44;5031858;28;20029;-29
2024/03/10 08:20:08;;;;;;;21.25;13.02;;;;;;;15.37;49.56;100048.91;5039124;28;20032;-28
2024/03/10 08:22:36;;;;;;;26.95;15.13;;;;;;;16.03;48.40;100047.94;5034016;28;20041;-27
2024/03/10 08:25:05;;;;;;;24.55;16.27;;;;;;;16.53;46.37;100049.31;5030882;28;20080;-27
2024/03/10 08:27:31;;;;;;;22.52;14.45;;;;;;;16.37;45.83;100047.34;5031130;28;20056;-27
2024/03/10 08:29:56;;;;;;;29.73;16.80;;;;;;;16.11;47.83;100041.41;5031346;28;20029;-28
2024/03/10 08:32:26;;;;;;;30.17;16.63;;;;;;;16.11;46.89;100051.31;5029879;28;20025;-27
2024/03/10 08:34:51;;;;;;;;;;;;;;;17.23;45.93;100052.94;5031775;28;20079;-26
2024/03/10 08:37:19;;;;;;;21.63;14.32;;;;;;;17.89;44.24;100056.00;5030933;28;19909;-27
2024/03/10 08:39:46;;;;;;;22.70;15.02;;;;;;;17.17;44.60;100041.28;5031095;28;20029;-27
2024/03/10 08:42:15;;;;;;;27.85;15.15;;;;;;;16.36;47.58;100034.97;5031732;28;20033;-27
2024/03/10 08:44:41;;;;;;;25.15;15.18;;;;;;;17.00;46.03;100035.00;5034537;28;20095;-28
2024/03/10 08:47:07;;;;;;;24.67;15.82;;;;;;;17.42;44.61;100031.19;5047017;28;20466;-28
2024/03/10 08:49:33;;;;;;;25.23;14.63;;;;;;;17.78;46.52;100035.31;5041858;28;20021;-27
2024/03/10 08:51:58;;;;;;;21.27;14.25;;;;;;;18.55;56.10;100039.22;5040522;28;20028;-27
2024/03/10 08:54:24;;;;;;;20.60;14.27;;;;;;;18.08;47.35;100037.72;5040615;28;20025;-27
2024/03/10 08:56:54;;;;;;;23.25;15.20;;;;;;;17.94;44.23;100022.97;5039461;28;20024;-26
2024/03/10 08:59:19;;;;;;;19.00;13.50;;;;;;;17.31;44.26;100031.03;5022695;28;20064;-27
2024/03/10 09:01:45;;;;;;;18.73;13.20;;;;;;;16.28;46.76;100033.47;5038241;28;20064;-28
2024/03/10 09:04:10;;;;;;;17.45;12.13;;;;;;;17.12;49.27;100032.28;5038528;28;20053;-29
2024/03/10 09:06:36;;;;;;;20.90;12.68;;;;;;;16.61;44.52;100026.66;5043281;28;20154;-28
2024/03/10 09:09:04;;;;;;;16.67;11.68;;;;;;;16.66;45.25;100023.25;5040057;28;20030;-28
2024/03/10 09:11:30;;;;;;;16.83;11.95;;;;;;;16.77;49.92;100019.72;5041194;28;20109;-27
2024/03/10 09:13:58;;;;;;;20.95;12.98;;;;;;;16.98;47.12;100029.88;5037792;28;20101;-28
2024/03/10 09:16:24;;;;;;;18.35;12.30;;;;;;;18.10;43.66;100022.13;5042975;28;20029;-27
2024/03/10 09:18:50;;;;;;;21.75;13.93;;;;;;;17.39;44.91;100030.63;5038324;28;20338;-28
2024/03/10 09:21:16;;;;;;;19.13;13.55;;;;;;;17.39;46.86;100013.69;5044171;28;20048;-27
2024/03/10 09:23:41;;;;;;;20.40;14.02;;;;;;;16.78;45.66;100019.47;5037235;28;20028;-28
2024/03/10 09:26:06;;;;;;;21.67;14.00;;;;;;;16.36;47.19;100019.66;5038568;28;20049;-27
2024/03/10 09:28:32;;;;;;;18.63;13.05;;;;;;;16.17;48.81;100020.84;5042230;28;20311;-27
2024/03/10 09:30:57;;;;;;;22.30;15.32;;;;;;;15.25;49.70;100014.81;5037971;28;20179;-27
2024/03/10 09:33:23;;;;;;;21.75;14.18;;;;;;;15.65;51.55;100013.44;5040988;28;20064;-28
2024/03/10 09:35:53;;;;;;;21.45;14.38;;;;;;;16.49;48.13;100023.19;5042164;28;20040;-27
2024/03/10 09:38:19;;;;;;;18.77;13.38;;;;;;;16.49;48.08;100024.00;5050716;28;20404;-27
2024/03/10 09:40:45;;;;;;;21.27;14.40;;;;;;;16.48;46.52;100006.22;5050781;28;20065;-27
2024/03/10 09:43:11;;;;;;;19.05;13.35;;;;;;;16.57;48.80;100012.06;5050800;28;20044;-28
2024/03/10 09:45:51;;;;;;;21.20;13.60;;;;;;;16.86;45.79;100017.53;5050788;28;20044;-28
2024/03/10 09:48:17;;;;;;;20.92;14.63;;;;;;;15.66;49.30;100014.22;5050515;28;20162;-27
2024/03/10 09:50:49;;;;;;;22.13;14.38;;;;;;;15.98;48.85;99994.13;5051827;28;20112;-28
2024/03/10 09:53:18;;;;;;;19.88;14.02;;;;;;;16.24;48.73;99994.72;5054031;28;20021;-27
2024/03/10 09:55:52;;;;;;;23.13;14.30;;;;;;;16.56;48.37;99991.59;5053493;28;20470;-27
2024/03/10 09:58:22;;;;;;;20.55;13.02;;;;;;;17.71;57.53;99989.75;5053634;28;20276;-26
2024/03/10 10:00:51;;;;;;;17.90;12.77;;;;;;;18.19;52.06;99997.50;5053981;28;20462;-26
2024/03/10 10:03:18;;;;;;;19.75;14.13;;;;;;;18.16;44.93;99988.03;5053983;28;20445;-27
2024/03/10 10:05:52;;;;;;;20.10;13.38;;;;;;;18.40;54.23;99972.47;5052431;28;20120;-27
2024/03/10 10:08:18;;;;;;;20.73;13.95;;;;;;;19.26;45.63;99971.03;5053799;28;20139;-29
2024/03/10 10:10:49;;;;;;;17.63;12.70;;;;;;;17.90;46.59;99984.16;5054496;28;20112;-28
2024/03/10 10:13:29;;;;;;;20.75;13.65;;;;;;;18.93;42.60;99978.25;5053959;28;20032;-27
2024/03/10 10:15:55;;;;;;;23.52;13.85;;;;;;;19.42;46.14;99986.31;5053821;28;20017;-28
2024/03/10 10:18:22;;;;;;;18.92;13.05;;;;;;;20.02;41.81;99980.84;5037405;28;20044;-27
2024/03/10 10:20:47;;;;;;;17.58;12.63;;;;;;;19.98;39.49;99985.97;5035255;28;20044;-28
2024/03/10 10:23:16;;;;;;;20.23;12.98;;;;;;;20.60;40.16;99970.09;5044888;28;20021;-27
2024/03/10 10:25:45;;;;;;;17.42;12.88;;;;;;;21.25;38.00;99970.56;5033619;28;20058;-27
2024/03/10 10:28:13;;;;;;;17.98;13.45;;;;;;;20.14;39.04;99961.75;5033094;28;20373;-29
2024/03/10 10:30:40;;;;;;;18.17;12.32;;;;;;;19.31;41.05;99952.19;5033632;28;20033;-27
2024/03/10 10:33:11;;;;;;;17.88;12.45;;;;;;;19.19;41.61;99952.38;5043076;28;20106;-27
2024/03/10 10:35:39;;;;;;;20.08;12.45;;;;;;;19.84;41.15;99952.38;5053326;28;20440;-38
2024/03/10 10:38:11;;;;;;;19.80;12.75;;;;;;;20.34;41.42;99936.72;5037781;28;20025;-40
2024/03/10 10:40:51;;;;;;;17.33;12.60;;;;;;;21.16;40.55;99945.09;5033367;28;20137;-40
2024/03/10 10:43:17;;;;;;;19.92;13.70;;;;;;;20.94;37.79;99946.13;5033138;28;20041;-41
2024/03/10 10:45:43;;;;;;;17.98;13.18;;;;;;;19.63;39.76;99954.06;5033131;28;20043;-41
2024/03/10 10:48:10;;;;;;;18.55;13.32;;;;;;;20.07;41.13;99940.38;5033144;28;20029;-41
2024/03/10 10:50:38;;;;;;;21.85;13.82;;;;;;;20.26;39.13;99938.03;5038891;28;20082;-42
2024/03/10 10:53:07;;;;;;;18.80;13.48;;;;;;;19.44;40.85;99934.75;5052984;28;20024;-41
2024/03/10 10:55:34;;;;;;;19.52;13.60;;;;;;;19.33;40.87;99936.56;5039902;28;20097;-28
2024/03/10 10:58:21;;;;;;;19.20;12.98;;;;;;;17.76;44.56;99924.41;5052967;28;20053;-29
2024/03/10 11:00:53;;;;;;;18.42;13.20;;;;;;;17.23;45.31;99923.84;5050757;28;20540;-27
2024/03/10 11:03:28;;;;;;;17.45;12.60;;;;;;;16.82;46.32;99912.38;5043905;28;20331;-38
2024/03/10 11:06:02;;;;;;;15.95;11.68;;;;;;;16.64;48.04;99902.59;5052301;28;20017;-42
2024/03/10 11:08:34;;;;;;;18.63;12.50;;;;;;;15.58;50.44;99905.41;5053063;28;20095;-27
2024/03/10 11:11:01;;;;;;;16.77;11.80;;;;;;;15.49;51.28;99879.97;5047483;28;20033;-41
2024/03/10 11:13:27;;;;;;;18.05;12.35;;;;;;;15.58;50.96;99876.72;5045875;28;20205;-27
2024/03/10 11:16:11;;;;;;;18.27;11.52;;;;;;;15.77;51.44;99857.84;5045036;28;20017;-39
2024/03/10 11:18:38;;;;;;;15.40;10.52;;;;;;;15.39;51.13;99867.97;5036625;28;20401;-38
2024/03/10 11:21:17;;;;;;;19.23;11.93;;;;;;;15.77;49.42;99866.72;5037859;28;20040;-38
2024/03/10 11:23:50;;;;;;;15.77;10.73;;;;;;;15.82;49.99;99860.63;5052287;28;20059;-39
2024/03/10 11:26:20;;;;;;;16.35;11.57;;;;;;;15.67;50.21;99849.53;5052830;28;20179;-40
2024/03/10 11:28:49;;;;;;;15.68;9.80;;;;;;;14.77;52.70;99843.38;5049468;28;20060;-27
2024/03/10 11:31:35;;;;;;;17.27;11.55;;;;;;;14.64;54.43;99825.63;5045493;28;20478;-27
2024/03/10 11:34:04;;;;;;;16.80;11.18;;;;;;;15.10;53.59;99832.16;5045024;28;20041;-27
2024/03/10 11:36:39;;;;;;;19.27;10.53;;;;;;;15.73;51.14;99833.34;5041474;28;20104;-28
2024/03/10 11:39:07;;;;;;;16.38;11.43;;;;;;;15.79;51.00;99824.38;5044155;28;20048;-27
2024/03/10 11:41:33;;;;;;;14.85;10.35;;;;;;;15.54;51.87;99821.09;5043639;28;20020;-28